Time;durP1;ratioP1;P1;durP2;ratioP2;P2;SDS_P1;SDS_P2;PMS_P1;PMS_P2;Temp;Humidity;BMP_temperature;BMP_pressure;BME280_temperature;BME280_humidity;BME280_pressure;Samples;Min_cycle;Max_cycle;Signal;HPM_P1;HPM_P2
2023/05/04 00:02:20;;;;;;;16.02;6.28;;;6.50;99.90;;;;;;5003110;28;20496;-73
2023/05/04 00:04:45;;;;;;;14.40;5.30;;;6.50;99.90;;;;;;5021175;28;20029;-76
2023/05/04 00:07:11;;;;;;;15.43;5.72;;;6.50;99.90;;;;;;5002212;28;20049;-73
2023/05/04 00:09:37;;;;;;;11.95;5.93;;;6.40;99.90;;;;;;5002001;28;20046;-76
2023/05/04 00:12:03;;;;;;;11.70;5.53;;;6.90;99.90;;;;;;5019111;28;20033;-75
2023/05/04 00:14:29;;;;;;;14.27;5.20;;;6.40;99.90;;;;;;5019681;28;20130;-73
2023/05/04 00:16:54;;;;;;;11.02;5.40;;;6.40;99.90;;;;;;5003316;28;20128;-72
2023/05/04 00:19:20;;;;;;;13.80;5.50;;;6.40;99.90;;;;;;5022648;28;20050;-75
2023/05/04 00:21:46;;;;;;;18.17;5.80;;;6.50;99.90;;;;;;5022707;28;20053;-73
2023/05/04 00:24:11;;;;;;;10.35;5.18;;;6.30;99.90;;;;;;5019369;28;20046;-73
2023/05/04 00:26:37;;;;;;;13.88;5.80;;;6.30;99.90;;;;;;5001852;28;20053;-72
2023/05/04 00:29:03;;;;;;;14.13;5.70;;;6.30;99.90;;;;;;5020404;28;20046;-72
2023/05/04 00:31:28;;;;;;;18.80;6.68;;;6.30;99.90;;;;;;5023612;28;20042;-73
2023/05/04 00:33:54;;;;;;;13.88;6.10;;;6.30;99.90;;;;;;5019503;28;20464;-72
2023/05/04 00:36:19;;;;;;;13.35;5.55;;;6.20;99.90;;;;;;5021598;28;20129;-73
2023/05/04 00:38:53;;;;;;;10.45;4.88;;;6.30;99.90;;;;;;5022372;28;20056;-74
2023/05/04 00:41:20;;;;;;;14.67;5.53;;;6.20;99.90;;;;;;5020612;28;20111;-74
2023/05/04 00:43:46;;;;;;;8.00;4.88;;;6.20;99.90;;;;;;5019500;28;20050;-74
2023/05/04 00:46:13;;;;;;;10.35;5.93;;;6.20;99.90;;;;;;5001221;28;20049;-73
2023/05/04 00:48:40;;;;;;;11.45;5.10;;;6.20;99.90;;;;;;5011200;28;20049;-72
2023/05/04 00:51:07;;;;;;;12.25;5.78;;;6.10;99.90;;;;;;5019339;28;20088;-73
2023/05/04 00:53:35;;;;;;;11.10;4.88;;;6.10;99.90;;;;;;5020607;28;20052;-74
2023/05/04 00:56:01;;;;;;;12.50;5.82;;;6.10;99.90;;;;;;5022565;28;20049;-75
2023/05/04 00:58:28;;;;;;;11.45;5.78;;;6.10;99.90;;;;;;5021883;28;20477;-73
2023/05/04 01:00:54;;;;;;;14.60;6.68;;;6.40;99.90;;;;;;5022458;28;20387;-74
2023/05/04 01:03:20;;;;;;;12.30;5.00;;;6.10;99.90;;;;;;5004421;28;20049;-74
2023/05/04 01:06:06;;;;;;;12.18;5.35;;;6.10;99.90;;;;;;5002312;28;20049;-75
2023/05/04 01:08:40;;;;;;;9.38;5.10;;;6.10;99.90;;;;;;5001422;28;20560;-76
2023/05/04 01:11:10;;;;;;;10.30;5.43;;;6.00;99.90;;;;;;5008604;28;20037;-74
2023/05/04 01:13:37;;;;;;;11.77;5.65;;;6.00;99.90;;;;;;5004221;28;20088;-78
2023/05/04 01:16:04;;;;;;;12.95;5.88;;;6.00;99.90;;;;;;5000996;28;20042;-73
2023/05/04 01:18:30;;;;;;;14.10;6.10;;;6.00;99.90;;;;;;5018691;28;20046;-74
2023/05/04 01:20:56;;;;;;;12.27;5.38;;;5.90;99.90;;;;;;5019270;28;20099;-81
2023/05/04 01:23:22;;;;;;;16.42;5.93;;;6.00;99.90;;;;;;5022064;28;20046;-76
2023/05/04 01:25:56;;;;;;;14.85;6.18;;;5.90;99.90;;;;;;5021699;28;20053;-74
2023/05/04 01:28:48;;;;;;;12.25;5.43;;;5.90;99.90;;;;;;5010947;28;20041;-74
2023/05/04 01:31:15;;;;;;;15.00;6.10;;;5.90;99.90;;;;;;4921146;29;20180;-73
2023/05/04 01:33:43;;;;;;;15.10;5.65;;;6.20;99.90;;;;;;4922477;29;20499;-77
2023/05/04 01:36:09;;;;;;;12.55;6.57;;;5.90;99.90;;;;;;4921564;29;20099;-73
2023/05/04 01:38:35;;;;;;;16.73;6.63;;;5.90;99.90;;;;;;4922288;29;20040;-73
2023/05/04 01:41:01;;;;;;;14.70;6.25;;;5.90;99.90;;;;;;4921817;29;20123;-74
2023/05/04 01:43:26;;;;;;;13.52;6.88;;;5.90;99.90;;;;;;4919710;29;20471;-77
2023/05/04 01:45:52;;;;;;;18.20;7.80;;;5.90;99.90;;;;;;4918978;29;20048;-74
2023/05/04 01:48:18;;;;;;;15.27;7.18;;;5.90;99.90;;;;;;4918803;29;20060;-73
2023/05/04 01:50:43;;;;;;;12.50;6.40;;;5.80;99.90;;;;;;4906256;29;20048;-74
2023/05/04 01:53:09;;;;;;;19.45;7.45;;;5.80;99.90;;;;;;4922040;29;20052;-75
2023/05/04 01:55:34;;;;;;;14.88;7.05;;;5.80;99.90;;;;;;4920261;29;20071;-75
2023/05/04 01:58:00;;;;;;;14.27;6.80;;;5.80;99.90;;;;;;4919997;29;20068;-73
2023/05/04 02:00:27;;;;;;;15.02;7.63;;;5.80;99.90;;;;;;4924650;29;20475;-78
2023/05/04 02:02:52;;;;;;;16.65;6.95;;;5.80;99.90;;;;;;4927499;29;20117;-74
2023/05/04 02:05:18;;;;;;;11.80;6.82;;;5.80;99.90;;;;;;4925484;29;20415;-73
2023/05/04 02:07:44;;;;;;;16.50;7.38;;;5.80;99.90;;;;;;4958402;28;20432;-74
2023/05/04 02:10:10;;;;;;;16.42;7.43;;;5.80;99.90;;;;;;5028147;28;20516;-75
2023/05/04 02:12:35;;;;;;;15.90;6.80;;;5.80;99.90;;;;;;5025610;28;20049;-72
2023/05/04 02:15:01;;;;;;;13.80;6.80;;;5.80;99.90;;;;;;5024335;28;20072;-73
2023/05/04 02:17:27;;;;;;;11.77;6.95;;;6.20;99.90;;;;;;5008637;28;20095;-73
2023/05/04 02:19:55;;;;;;;18.38;6.68;;;5.80;99.90;;;;;;5020845;28;20114;-71
2023/05/04 02:22:20;;;;;;;13.98;6.85;;;5.80;99.90;;;;;;5027660;28;20041;-74
2023/05/04 02:24:46;;;;;;;14.73;6.05;;;5.80;99.90;;;;;;5027559;28;20408;-82
2023/05/04 02:27:12;;;;;;;14.57;6.95;;;5.80;99.90;;;;;;5025004;28;20057;-74
2023/05/04 02:29:37;;;;;;;13.07;6.32;;;5.80;99.90;;;;;;5024144;28;20044;-78
2023/05/04 02:32:03;;;;;;;12.95;6.40;;;5.80;99.90;;;;;;5008572;28;20045;-74
2023/05/04 02:34:29;;;;;;;12.20;6.57;;;5.80;99.90;;;;;;5006036;28;20394;-73
2023/05/04 02:36:55;;;;;;;12.93;7.10;;;5.80;99.90;;;;;;5024701;28;20048;-74
2023/05/04 02:39:21;;;;;;;12.82;6.43;;;5.80;99.90;;;;;;5008925;28;20420;-73
2023/05/04 02:41:46;;;;;;;15.95;6.78;;;5.80;99.90;;;;;;5027712;28;20045;-74
2023/05/04 02:44:12;;;;;;;16.55;7.22;;;5.70;99.90;;;;;;5020233;28;20056;-73
2023/05/04 02:46:37;;;;;;;12.52;5.97;;;5.80;99.90;;;;;;5009742;28;20124;-73
2023/05/04 02:49:03;;;;;;;14.93;6.50;;;5.80;99.90;;;;;;5027331;28;20063;-73
2023/05/04 02:51:29;;;;;;;13.13;6.88;;;5.80;99.90;;;;;;5003302;28;20104;-73
2023/05/04 02:53:54;;;;;;;12.57;6.60;;;5.80;99.90;;;;;;5027493;28;20049;-74
2023/05/04 02:56:20;;;;;;;19.17;7.55;;;5.90;99.90;;;;;;5022580;28;20057;-73
2023/05/04 02:58:46;;;;;;;11.48;6.85;;;5.80;99.90;;;;;;5025580;28;20060;-76
2023/05/04 03:01:11;;;;;;;15.23;7.13;;;5.80;99.90;;;;;;5024052;28;20088;-73
2023/05/04 03:03:37;;;;;;;16.25;7.80;;;5.80;99.90;;;;;;5025080;28;20096;-73
2023/05/04 03:06:03;;;;;;;14.43;6.60;;;5.90;99.90;;;;;;5027536;28;20510;-74
2023/05/04 03:08:29;;;;;;;13.90;6.75;;;5.80;99.90;;;;;;5024261;28;20049;-73
2023/05/04 03:10:54;;;;;;;12.82;7.30;;;5.80;99.90;;;;;;5021767;28;20413;-73
2023/05/04 03:13:20;;;;;;;12.57;7.15;;;5.80;99.90;;;;;;5022399;28;20060;-75
2023/05/04 03:15:45;;;;;;;15.20;6.80;;;5.80;99.90;;;;;;5021566;28;20149;-73
2023/05/04 03:18:11;;;;;;;13.57;6.95;;;5.80;99.90;;;;;;5007178;28;20057;-74
2023/05/04 03:20:37;;;;;;;13.82;6.65;;;6.10;99.90;;;;;;5021393;28;20467;-74
2023/05/04 03:23:02;;;;;;;16.90;6.57;;;5.80;99.90;;;;;;5021985;28;20663;-72
2023/05/04 03:25:28;;;;;;;15.32;7.18;;;5.80;99.90;;;;;;5002933;28;20111;-74
2023/05/04 03:27:53;;;;;;;11.38;7.32;;;5.80;99.90;;;;;;5020703;28;20125;-73
2023/05/04 03:30:19;;;;;;;14.90;6.93;;;5.90;99.90;;;;;;5012592;28;20054;-73
2023/05/04 03:32:45;;;;;;;13.27;7.10;;;5.90;99.90;;;;;;5022562;28;20045;-73
2023/05/04 03:35:11;;;;;;;16.08;7.22;;;5.90;99.90;;;;;;5004362;28;20053;-73
2023/05/04 03:37:37;;;;;;;20.60;7.53;;;5.90;99.90;;;;;;5020116;28;20049;-73
2023/05/04 03:40:03;;;;;;;13.23;6.53;;;5.90;99.90;;;;;;5020568;28;20052;-73
2023/05/04 03:42:28;;;;;;;18.75;7.18;;;5.90;99.90;;;;;;5022594;28;20041;-72
2023/05/04 03:44:54;;;;;;;13.15;7.03;;;5.90;99.90;;;;;;5002381;28;20084;-73
2023/05/04 03:47:20;;;;;;;18.40;7.10;;;6.00;99.90;;;;;;5003523;28;20472;-74
2023/05/04 03:49:46;;;;;;;17.65;7.50;;;6.00;99.90;;;;;;5022522;28;20447;-73
2023/05/04 03:52:12;;;;;;;14.75;6.70;;;6.00;99.90;;;;;;5020099;28;20113;-72
2023/05/04 03:54:37;;;;;;;17.30;6.95;;;6.00;99.90;;;;;;5022420;28;20133;-76
2023/05/04 03:57:03;;;;;;;16.90;7.40;;;6.00;99.90;;;;;;5023535;28;20077;-76
2023/05/04 03:59:29;;;;;;;15.25;6.70;;;6.00;99.90;;;;;;5022528;28;20049;-79
2023/05/04 04:01:55;;;;;;;12.88;6.03;;;6.00;99.90;;;;;;5018601;28;20499;-75
2023/05/04 04:04:21;;;;;;;14.35;6.78;;;6.10;99.90;;;;;;5023152;28;20037;-78
2023/05/04 04:06:46;;;;;;;15.38;6.95;;;6.10;99.90;;;;;;4987103;28;20092;-77
2023/05/04 04:09:12;;;;;;;16.88;6.43;;;6.10;99.90;;;;;;5022877;28;20037;-77
2023/05/04 04:11:37;;;;;;;13.45;7.32;;;6.40;99.90;;;;;;5016055;28;20132;-80
2023/05/04 04:14:03;;;;;;;19.63;6.88;;;6.10;99.90;;;;;;5023139;28;20102;-73
2023/05/04 04:16:29;;;;;;;15.32;7.03;;;6.10;99.90;;;;;;5005262;28;20055;-75
2023/05/04 04:18:55;;;;;;;12.98;6.75;;;6.20;99.90;;;;;;5021722;28;20041;-73
2023/05/04 04:21:20;;;;;;;15.40;6.80;;;6.10;99.90;;;;;;5018470;28;20057;-77
2023/05/04 04:23:46;;;;;;;18.98;6.63;;;6.10;99.90;;;;;;5022636;28;20041;-74
2023/05/04 04:26:12;;;;;;;11.35;6.45;;;6.20;99.90;;;;;;5019618;28;20052;-75
2023/05/04 04:28:37;;;;;;;14.43;6.78;;;6.20;99.90;;;;;;5001861;28;20469;-74
2023/05/04 04:31:03;;;;;;;13.50;6.80;;;6.20;99.90;;;;;;5020613;28;20041;-74
2023/05/04 04:33:29;;;;;;;14.75;6.28;;;6.20;99.90;;;;;;5022094;28;20041;-74
2023/05/04 04:35:55;;;;;;;13.88;6.07;;;6.20;99.90;;;;;;5004913;28;20050;-73
2023/05/04 04:38:21;;;;;;;14.73;6.55;;;6.20;99.90;;;;;;5019866;28;20041;-73
2023/05/04 04:40:46;;;;;;;12.55;6.65;;;6.20;99.90;;;;;;5019269;28;20048;-77
2023/05/04 04:43:13;;;;;;;12.07;6.60;;;6.30;99.90;;;;;;5019657;28;20034;-76
2023/05/04 04:45:40;;;;;;;15.18;6.50;;;6.30;99.90;;;;;;5022632;28;20049;-77
2023/05/04 04:48:06;;;;;;;17.48;7.60;;;6.40;99.90;;;;;;5022491;28;20045;-75
2023/05/04 04:50:31;;;;;;;13.88;6.78;;;6.30;99.90;;;;;;5021315;28;20161;-73
2023/05/04 04:52:57;;;;;;;13.95;6.10;;;6.30;99.90;;;;;;5002143;28;20049;-74
2023/05/04 04:55:24;;;;;;;23.65;6.57;;;6.30;99.90;;;;;;5019267;28;20053;-75
2023/05/04 04:57:51;;;;;;;14.43;6.47;;;6.40;99.90;;;;;;5022216;28;20152;-74
2023/05/04 05:00:17;;;;;;;16.48;6.68;;;6.40;99.90;;;;;;5022025;28;20057;-77
2023/05/04 05:02:44;;;;;;;13.60;6.45;;;6.40;99.90;;;;;;5019693;28;20453;-74
2023/05/04 05:05:11;;;;;;;16.73;6.55;;;6.50;99.90;;;;;;5001181;28;20053;-74
2023/05/04 05:07:37;;;;;;;13.57;6.50;;;6.50;99.90;;;;;;5019296;28;20538;-74
2023/05/04 05:10:03;;;;;;;12.77;7.07;;;6.50;99.90;;;;;;5004227;28;20164;-76
2023/05/04 05:12:29;;;;;;;11.52;6.13;;;6.50;99.90;;;;;;5022039;28;20075;-76
2023/05/04 05:14:55;;;;;;;14.13;6.45;;;6.50;99.90;;;;;;5019891;28;20045;-76
2023/05/04 05:17:21;;;;;;;11.05;6.03;;;6.60;99.90;;;;;;5001083;28;20050;-74
2023/05/04 05:19:46;;;;;;;15.20;6.88;;;6.80;99.90;;;;;;5018848;28;20038;-77
2023/05/04 05:22:12;;;;;;;11.43;6.50;;;6.60;99.90;;;;;;5025494;28;20753;-73
2023/05/04 05:24:38;;;;;;;19.25;6.57;;;6.70;99.90;;;;;;5018420;28;20081;-75
2023/05/04 05:27:03;;;;;;;15.02;6.28;;;6.70;99.90;;;;;;5022054;28;20049;-75
2023/05/04 05:29:30;;;;;;;12.50;6.63;;;6.70;99.90;;;;;;5000852;28;20052;-74
2023/05/04 05:31:56;;;;;;;11.40;6.43;;;6.80;99.90;;;;;;5018582;28;20444;-77
2023/05/04 05:34:21;;;;;;;12.75;6.30;;;6.80;99.90;;;;;;5020825;28;20041;-75
2023/05/04 05:36:47;;;;;;;12.45;6.55;;;7.00;99.90;;;;;;5021737;28;20077;-74
2023/05/04 05:39:13;;;;;;;14.80;6.35;;;6.90;99.90;;;;;;5014100;28;20523;-74
2023/05/04 05:41:39;;;;;;;13.25;6.25;;;7.00;99.90;;;;;;5016524;28;20046;-71
2023/05/04 05:44:08;;;;;;;11.57;6.20;;;7.00;99.90;;;;;;5005270;28;20045;-75
2023/05/04 05:46:34;;;;;;;16.50;6.20;;;7.00;99.90;;;;;;4992401;28;20493;-75
2023/05/04 05:49:00;;;;;;;12.93;6.47;;;7.00;99.90;;;;;;5018326;28;20091;-75
2023/05/04 05:51:25;;;;;;;15.45;6.55;;;7.10;99.90;;;;;;5019319;28;20049;-74
2023/05/04 05:53:51;;;;;;;15.55;6.32;;;7.20;99.90;;;;;;5018375;28;20041;-74
2023/05/04 05:56:16;;;;;;;16.20;6.82;;;7.50;99.90;;;;;;5018507;28;20531;-76
2023/05/04 05:58:42;;;;;;;13.40;6.38;;;7.20;99.90;;;;;;5020415;28;20098;-74
2023/05/04 06:01:08;;;;;;;14.93;6.97;;;7.30;99.90;;;;;;5021307;28;20095;-74
2023/05/04 06:03:33;;;;;;;13.60;6.22;;;7.30;99.90;;;;;;5020685;28;20120;-74
2023/05/04 06:05:59;;;;;;;15.30;6.82;;;7.70;99.90;;;;;;5000725;28;20049;-74
2023/05/04 06:08:25;;;;;;;11.80;6.68;;;7.50;99.90;;;;;;5017504;28;20042;-78
2023/05/04 06:10:51;;;;;;;17.33;7.47;;;7.50;99.90;;;;;;5020388;28;20080;-75
2023/05/04 06:13:17;;;;;;;13.27;7.13;;;7.60;99.90;;;;;;4998381;28;20053;-72
2023/05/04 06:15:51;;;;;;;20.42;7.13;;;7.60;99.90;;;;;;5018392;28;20048;-73
2023/05/04 06:18:16;;;;;;;14.35;7.28;;;7.70;99.90;;;;;;5021689;28;20559;-76
2023/05/04 06:20:42;;;;;;;15.63;6.95;;;8.30;99.90;;;;;;5000328;28;20046;-75
2023/05/04 06:23:08;;;;;;;25.95;6.97;;;7.90;99.90;;;;;;5020369;28;20113;-74
2023/05/04 06:25:33;;;;;;;14.18;6.25;;;8.00;99.90;;;;;;5020788;28;20061;-73
2023/05/04 06:27:59;;;;;;;15.00;6.72;;;8.00;99.90;;;;;;5019628;28;20081;-73
2023/05/04 06:30:25;;;;;;;13.32;6.03;;;8.10;99.90;;;;;;5017923;28;20076;-73
2023/05/04 06:32:51;;;;;;;14.73;6.18;;;8.10;99.90;;;;;;5018032;28;20054;-75
2023/05/04 06:35:16;;;;;;;13.48;6.05;;;7.80;99.90;;;;;;5020761;28;20052;-74
2023/05/04 06:37:42;;;;;;;12.02;5.72;;;8.30;99.90;;;;;;5020942;28;20519;-73
2023/05/04 06:40:08;;;;;;;16.30;6.88;;;8.30;99.90;;;;;;5019847;28;20041;-74
2023/05/04 06:42:34;;;;;;;15.27;6.13;;;8.40;99.90;;;;;;5018372;28;20041;-74
2023/05/04 06:44:59;;;;;;;13.85;6.50;;;8.50;99.90;;;;;;5022433;28;20048;-74
2023/05/04 06:47:25;;;;;;;13.30;6.38;;;8.80;99.90;;;;;;5004572;28;20049;-75
2023/05/04 06:49:51;;;;;;;12.75;6.03;;;8.80;99.90;;;;;;5021486;28;20038;-75
2023/05/04 06:52:17;;;;;;;11.55;6.43;;;9.20;99.90;;;;;;5021312;28;20054;-73
2023/05/04 06:54:42;;;;;;;13.90;6.75;;;9.30;99.90;;;;;;5024281;28;20053;-79
2023/05/04 06:57:08;;;;;;;18.50;6.75;;;8.90;99.90;;;;;;5024137;28;20395;-72
2023/05/04 06:59:33;;;;;;;9.70;5.97;;;9.00;99.90;;;;;;5022607;28;20057;-74
2023/05/04 07:01:59;;;;;;;14.73;6.63;;;9.10;99.90;;;;;;5021653;28;20125;-76
2023/05/04 07:04:25;;;;;;;11.63;5.97;;;9.20;99.90;;;;;;5021577;28;20041;-74
2023/05/04 07:06:51;;;;;;;12.38;6.47;;;9.30;99.90;;;;;;5022706;28;20412;-75
2023/05/04 07:09:20;;;;;;;13.60;6.53;;;9.40;99.90;;;;;;5024355;28;20116;-84
2023/05/04 07:11:47;;;;;;;16.15;6.53;;;9.40;99.90;;;;;;5022259;28;20052;-76
2023/05/04 07:14:13;;;;;;;18.65;6.82;;;9.50;99.90;;;;;;5021066;28;20066;-75
2023/05/04 07:16:39;;;;;;;13.45;6.03;;;9.70;99.90;;;;;;5020655;28;20054;-74
2023/05/04 07:19:05;;;;;;;13.50;6.53;;;9.60;99.90;;;;;;5012885;28;20512;-77
2023/05/04 07:21:30;;;;;;;15.93;6.10;;;9.80;99.90;;;;;;5020899;28;20054;-74
2023/05/04 07:23:56;;;;;;;13.32;6.63;;;9.90;99.90;;;;;;5022237;28;20104;-74
2023/05/04 07:26:22;;;;;;;10.75;6.03;;;9.80;99.90;;;;;;5023604;28;20401;-74
2023/05/04 07:28:47;;;;;;;18.55;6.68;;;9.90;99.90;;;;;;5024241;28;20052;-74
2023/05/04 07:31:14;;;;;;;13.57;6.10;;;10.00;99.90;;;;;;5002898;28;20046;-78
2023/05/04 07:33:40;;;;;;;13.10;6.57;;;10.10;99.90;;;;;;5020581;28;20125;-75
2023/05/04 07:36:06;;;;;;;13.45;6.28;;;10.20;99.90;;;;;;5004618;28;20132;-75
2023/05/04 07:38:32;;;;;;;17.65;6.30;;;10.30;99.90;;;;;;5020554;28;20493;-76
2023/05/04 07:40:58;;;;;;;13.68;6.13;;;10.50;99.90;;;;;;5020208;28;20522;-75
2023/05/04 07:43:24;;;;;;;12.18;6.18;;;10.60;99.90;;;;;;5022924;28;20050;-76
2023/05/04 07:45:51;;;;;;;15.10;6.28;;;10.80;99.90;;;;;;5005647;28;20136;-78
2023/05/04 07:48:17;;;;;;;14.10;6.40;;;10.90;99.90;;;;;;5022595;28;20099;-80
2023/05/04 07:50:43;;;;;;;13.38;6.93;;;11.40;99.90;;;;;;5020379;28;20050;-75
2023/05/04 07:53:08;;;;;;;14.88;6.05;;;11.30;99.90;;;;;;5019988;28;20068;-77
2023/05/04 07:55:34;;;;;;;18.45;6.45;;;11.40;99.90;;;;;;5021352;28;20042;-76
2023/05/04 07:58:00;;;;;;;11.82;6.55;;;11.60;99.90;;;;;;5023138;28;20140;-74
2023/05/04 08:00:26;;;;;;;13.23;5.50;;;11.70;99.90;;;;;;5023447;28;20037;-78
2023/05/04 08:02:51;;;;;;;11.90;5.55;;;11.80;99.90;;;;;;5020045;28;20056;-75
2023/05/04 08:05:17;;;;;;;12.30;5.80;;;12.00;99.90;;;;;;5017832;28;20061;-77
2023/05/04 08:07:43;;;;;;;12.60;6.07;;;12.00;99.90;;;;;;5022446;28;20488;-76
2023/05/04 08:10:09;;;;;;;13.63;5.88;;;12.50;99.90;;;;;;5006044;28;20120;-76
2023/05/04 08:12:34;;;;;;;11.23;5.65;;;12.40;99.90;;;;;;5023152;28;20037;-75
2023/05/04 08:15:00;;;;;;;12.75;5.60;;;12.50;99.90;;;;;;5002836;28;20064;-75
2023/05/04 08:17:26;;;;;;;10.77;5.95;;;12.70;99.90;;;;;;5020578;28;20397;-75
2023/05/04 08:19:52;;;;;;;11.65;6.30;;;13.00;99.90;;;;;;5022124;28;20179;-77
2023/05/04 08:22:18;;;;;;;13.32;5.68;;;13.00;99.90;;;;;;5006250;28;20053;-77
2023/05/04 08:24:45;;;;;;;9.65;5.38;;;13.10;99.90;;;;;;5014863;28;20057;-75
2023/05/04 08:27:14;;;;;;;10.57;5.38;;;13.20;99.90;;;;;;5012059;28;20187;-75
2023/05/04 08:29:40;;;;;;;9.57;5.65;;;13.40;99.90;;;;;;5020139;28;20042;-76
2023/05/04 08:32:07;;;;;;;13.77;4.95;;;13.40;99.90;;;;;;5021780;28;20052;-76
2023/05/04 08:34:33;;;;;;;13.65;6.07;;;13.50;99.90;;;;;;5022354;28;20084;-76
2023/05/04 08:36:58;;;;;;;15.93;5.82;;;13.60;99.90;;;;;;5023159;28;20423;-76
2023/05/04 08:39:24;;;;;;;14.27;6.15;;;13.60;99.90;;;;;;5019889;28;20048;-76
2023/05/04 08:41:50;;;;;;;11.68;5.55;;;13.70;99.90;;;;;;5020049;28;20037;-77
2023/05/04 08:44:17;;;;;;;12.48;5.18;;;13.90;99.90;;;;;;4989666;28;20119;-74
2023/05/04 08:46:55;;;;;;;13.88;5.35;;;14.10;99.90;;;;;;5023466;28;20033;-75
2023/05/04 08:49:21;;;;;;;14.88;6.25;;;14.10;99.90;;;;;;5020940;28;20056;-74
2023/05/04 08:51:51;;;;;;;10.85;5.25;;;14.10;99.90;;;;;;5023505;28;20064;-73
2023/05/04 08:54:17;;;;;;;10.85;4.90;;;14.10;99.90;;;;;;5023214;28;20132;-77
2023/05/04 08:56:45;;;;;;;11.50;5.50;;;14.20;99.90;;;;;;5019644;28;20116;-74
2023/05/04 08:59:21;;;;;;;14.02;5.10;;;14.40;99.90;;;;;;5019813;28;20077;-75
2023/05/04 09:01:51;;;;;;;11.38;5.43;;;14.50;99.90;;;;;;5012294;28;20071;-74
2023/05/04 09:04:18;;;;;;;12.88;5.65;;;14.70;99.90;;;;;;5020026;28;20408;-75
2023/05/04 09:06:46;;;;;;;10.35;5.50;;;14.80;99.90;;;;;;5019337;28;20053;-75
2023/05/04 09:09:12;;;;;;;10.52;5.03;;;14.80;99.90;;;;;;5013822;28;20484;-75
2023/05/04 09:11:39;;;;;;;13.43;5.20;;;14.90;99.90;;;;;;5020068;28;20664;-74
2023/05/04 09:14:05;;;;;;;14.75;5.65;;;15.00;99.90;;;;;;5020558;28;20065;-74
2023/05/04 09:16:35;;;;;;;13.18;4.93;;;15.20;99.90;;;;;;5022334;28;20468;-76
2023/05/04 09:19:03;;;;;;;10.68;4.95;;;15.30;99.90;;;;;;5018301;28;20124;-76
2023/05/04 09:21:30;;;;;;;10.30;4.75;;;15.30;99.90;;;;;;5013966;28;20049;-74
2023/05/04 09:23:56;;;;;;;8.70;4.75;;;15.50;99.90;;;;;;5014655;28;20034;-75
2023/05/04 09:26:32;;;;;;;10.40;4.35;;;15.60;99.90;;;;;;5021521;28;20060;-73
2023/05/04 09:29:14;;;;;;;10.02;5.07;;;15.60;99.90;;;;;;5013642;28;20061;-74
2023/05/04 09:31:51;;;;;;;11.38;4.78;;;15.80;99.90;;;;;;4996626;28;20053;-75
2023/05/04 09:34:19;;;;;;;10.13;4.55;;;15.90;99.90;;;;;;5013542;28;20199;-75
2023/05/04 09:36:56;;;;;;;10.65;4.35;;;16.00;99.90;;;;;;5005052;28;20116;-72
2023/05/04 09:39:22;;;;;;;9.45;3.70;;;16.10;99.90;;;;;;5025426;28;20083;-74
2023/05/04 09:41:48;;;;;;;10.40;3.78;;;16.30;99.90;;;;;;5006228;28;20093;-75
2023/05/04 09:44:22;;;;;;;12.15;4.18;;;16.50;99.90;;;;;;4986410;28;20069;-74
2023/05/04 09:46:59;;;;;;;13.73;4.40;;;16.70;99.90;;;;;;5013735;28;20563;-77
2023/05/04 09:49:33;;;;;;;10.25;4.40;;;17.00;99.90;;;;;;5025667;28;20128;-79
2023/05/04 09:52:01;;;;;;;8.95;3.75;;;17.10;99.90;;;;;;5003038;28;20064;-72
2023/05/04 09:54:33;;;;;;;9.90;4.03;;;17.30;99.90;;;;;;5008650;28;20054;-73
2023/05/04 09:57:13;;;;;;;10.77;3.92;;;17.30;99.90;;;;;;5020524;28;20492;-71
2023/05/04 09:59:39;;;;;;;11.55;4.45;;;17.40;99.90;;;;;;5011313;28;20129;-85
2023/05/04 10:02:06;;;;;;;8.20;3.22;;;17.40;99.90;;;;;;5011528;28;20137;-72
2023/05/04 10:04:35;;;;;;;9.32;3.70;;;17.50;99.90;;;;;;5001819;28;20512;-72
2023/05/04 10:07:05;;;;;;;7.57;3.95;;;17.60;99.90;;;;;;5021598;28;20076;-73
2023/05/04 10:09:32;;;;;;;7.57;3.40;;;17.60;99.90;;;;;;5021670;28;20055;-73
2023/05/04 10:12:05;;;;;;;6.53;3.75;;;17.70;99.90;;;;;;5006865;28;20117;-72
2023/05/04 10:14:35;;;;;;;11.82;4.07;;;17.70;99.90;;;;;;5019436;28;20089;-72
2023/05/04 10:17:19;;;;;;;9.70;3.70;;;17.70;99.90;;;;;;5010520;28;20065;-72
2023/05/04 10:20:06;;;;;;;10.25;3.92;;;17.80;99.90;;;;;;5014697;28;20506;-73
2023/05/04 10:22:43;;;;;;;11.82;4.13;;;17.90;99.90;;;;;;5006759;28;20042;-73
2023/05/04 10:25:13;;;;;;;11.85;4.60;;;18.00;99.90;;;;;;5000914;28;20057;-72
2023/05/04 10:28:16;;;;;;;12.38;3.65;;;18.10;99.90;;;;;;5004135;28;20095;-77
2023/05/04 10:30:42;;;;;;;9.02;3.90;;;18.30;99.30;;;;;;5001295;28;20098;-78
2023/05/04 10:33:08;;;;;;;11.25;3.97;;;18.40;99.90;;;;;;5018502;28;20084;-75
2023/05/04 10:35:33;;;;;;;9.13;3.72;;;18.40;99.90;;;;;;5007593;28;20140;-78
2023/05/04 10:37:59;;;;;;;7.78;4.15;;;18.60;99.90;;;;;;5007246;28;20049;-77
2023/05/04 10:40:38;;;;;;;12.18;4.35;;;18.70;99.90;;;;;;4990921;28;20041;-76
2023/05/04 10:43:05;;;;;;;13.18;4.30;;;18.80;99.90;;;;;;5021763;28;20054;-75
2023/05/04 10:45:38;;;;;;;8.57;3.78;;;18.70;99.90;;;;;;5014008;28;20073;-75
2023/05/04 10:48:04;;;;;;;11.52;3.90;;;18.80;99.80;;;;;;5002710;28;20084;-77
2023/05/04 10:50:50;;;;;;;9.63;3.75;;;18.90;99.90;;;;;;5017254;28;20117;-77
2023/05/04 10:53:32;;;;;;;8.85;3.85;;;19.00;99.60;;;;;;5020057;28;20109;-72
2023/05/04 10:55:58;;;;;;;10.15;4.30;;;19.00;99.00;;;;;;5005273;28;20049;-77
2023/05/04 10:58:28;;;;;;;9.00;4.85;;;19.10;99.40;;;;;;5021469;28;20052;-75
2023/05/04 11:00:53;;;;;;;10.38;4.13;;;19.20;98.30;;;;;;5015516;28;20045;-74
2023/05/04 11:03:21;;;;;;;7.13;3.78;;;19.40;99.30;;;;;;5017664;28;20049;-75
2023/05/04 11:05:53;;;;;;;9.70;4.28;;;19.50;99.40;;;;;;5022848;28;20072;-75
2023/05/04 11:08:23;;;;;;;10.50;4.35;;;19.70;99.20;;;;;;4994791;28;20082;-81
2023/05/04 11:11:01;;;;;;;11.85;4.60;;;19.80;98.70;;;;;;5021785;28;20129;-73
2023/05/04 11:13:35;;;;;;;8.88;3.85;;;19.80;98.10;;;;;;4993965;28;20046;-76
2023/05/04 11:16:01;;;;;;;11.27;3.95;;;19.70;98.40;;;;;;4991392;28;20091;-75
2023/05/04 11:18:42;;;;;;;9.52;4.38;;;19.90;98.80;;;;;;5018610;28;20124;-73
2023/05/04 11:21:46;;;;;;;13.85;4.15;;;19.90;96.80;;;;;;4988237;28;20077;-78
2023/05/04 11:24:15;;;;;;;11.90;3.95;;;19.80;96.60;;;;;;5001728;28;20045;-75
2023/05/04 11:26:49;;;;;;;10.50;4.28;;;19.80;97.60;;;;;;5074907;23;20053;-77
2023/05/04 11:29:35;;;;;;;15.80;4.85;;;19.80;97.00;;;;;;4983364;28;20050;-78
2023/05/04 11:32:01;;;;;;;14.93;4.00;;;20.00;98.00;;;;;;4952914;28;20047;-74
2023/05/04 11:34:59;;;;;;;11.48;4.07;;;20.30;97.80;;;;;;4941767;29;20051;-82
2023/05/04 11:40:18;;;;;;;8.82;3.90;;;20.40;97.50;;;;;;5016458;23;20057;-72
2023/05/04 11:42:59;;;;;;;10.63;3.80;;;20.80;97.20;;;;;;5017697;28;20480;-76
2023/05/04 11:45:42;;;;;;;11.52;3.58;;;20.70;94.50;;;;;;4993997;28;20058;-74
2023/05/04 11:48:20;;;;;;;9.10;3.85;;;20.80;96.60;;;;;;5008964;28;20052;-74
2023/05/04 11:50:47;;;;;;;8.52;3.58;;;20.80;94.90;;;;;;4997237;28;20058;-76
2023/05/04 11:53:13;;;;;;;14.55;4.22;;;20.80;95.60;;;;;;5011916;28;20049;-75
2023/05/04 11:55:41;;;;;;;9.13;3.83;;;21.00;95.90;;;;;;5008364;28;20056;-79
2023/05/04 11:58:45;;;;;;;9.55;3.67;;;21.20;95.00;;;;;;4974833;28;20057;-75
2023/05/04 12:01:24;;;;;;;10.00;3.38;;;21.40;93.90;;;;;;5057564;23;20054;-78
2023/05/04 12:03:56;;;;;;;11.60;4.07;;;21.30;93.80;;;;;;5009659;23;20467;-79
2023/05/04 12:06:32;;;;;;;10.50;3.60;;;21.30;93.70;;;;;;4956862;28;20093;-76
2023/05/04 12:09:07;;;;;;;8.63;3.65;;;21.50;94.50;;;;;;4978193;28;20057;-80
2023/05/04 12:11:55;;;;;;;14.60;3.65;;;21.60;94.30;;;;;;4996839;28;20489;-86
2023/05/04 12:14:45;;;;;;;8.13;3.83;;;21.60;92.90;;;;;;4978176;28;20081;-76
2023/05/04 12:17:23;;;;;;;9.52;3.20;;;21.70;93.20;;;;;;4911658;29;20052;-73
2023/05/04 12:19:54;;;;;;;8.68;3.38;;;21.60;92.20;;;;;;4901899;29;20071;-75
2023/05/04 12:22:31;;;;;;;9.10;3.55;;;21.70;93.60;;;;;;4907214;29;20063;-75
2023/05/04 12:25:00;;;;;;;16.65;4.30;;;21.70;91.70;;;;;;4921895;29;20064;-81
2023/05/04 12:27:26;;;;;;;8.70;3.88;;;21.70;92.90;;;;;;4898659;29;20043;-75
2023/05/04 12:29:52;;;;;;;7.90;3.97;;;21.70;92.70;;;;;;4927019;29;20181;-76
2023/05/04 12:32:18;;;;;;;9.48;3.80;;;21.80;92.80;;;;;;4928163;29;20595;-75
2023/05/04 12:34:44;;;;;;;9.25;4.50;;;21.90;92.00;;;;;;4924372;29;20060;-79
2023/05/04 12:37:10;;;;;;;8.65;3.83;;;21.90;92.50;;;;;;4923066;29;20036;-77
2023/05/04 12:39:36;;;;;;;10.02;4.55;;;22.00;92.40;;;;;;4907379;29;20067;-76
2023/05/04 12:42:03;;;;;;;15.45;4.97;;;21.90;91.90;;;;;;4928790;29;20052;-75
2023/05/04 12:44:29;;;;;;;11.23;4.10;;;21.80;91.20;;;;;;4927398;29;20184;-76
2023/05/04 12:46:55;;;;;;;12.15;4.95;;;21.70;91.60;;;;;;4888829;29;20048;-75
2023/05/04 12:49:21;;;;;;;9.63;4.13;;;21.90;92.10;;;;;;4922660;29;20067;-74
2023/05/04 12:51:47;;;;;;;9.25;4.30;;;21.90;91.80;;;;;;4922961;29;20129;-77